createdAt,value
2023-02-19T00:02:38.662Z,97660.64
2023-02-19T00:06:16.510Z,97674.23
2023-02-19T00:10:12.873Z,97681.05
2023-02-19T00:13:39.458Z,97689.14
2023-02-19T00:17:12.841Z,97689.11
2023-02-19T00:21:10.322Z,97690.17
2023-02-19T00:24:33.208Z,97690.91
2023-02-19T00:28:30.117Z,97689.71
2023-02-19T00:31:52.686Z,97686.80
2023-02-19T00:35:29.792Z,97681.14
2023-02-19T00:39:26.656Z,97674.13
2023-02-19T00:43:08.011Z,97669.25
2023-02-19T00:46:49.527Z,97665.63
2023-02-19T00:50:11.943Z,97675.24
2023-02-19T00:54:09.699Z,97676.84
2023-02-19T00:57:50.512Z,97681.27
2023-02-19T01:01:33.230Z,97686.80
2023-02-19T01:04:55.244Z,97688.80
2023-02-19T01:08:51.794Z,97674.02
2023-02-19T01:12:15.104Z,97678.09
2023-02-19T01:16:19.581Z,97664.61
2023-02-19T01:19:41.939Z,97673.40
2023-02-19T01:23:41.424Z,97672.55
2023-02-19T01:27:03.513Z,97682.49
2023-02-19T01:30:41.283Z,97683.52
2023-02-19T01:34:39.299Z,97673.86
2023-02-19T01:38:02.480Z,97666.30
2023-02-19T01:41:41.782Z,97651.32
2023-02-19T01:45:29.198Z,97645.72
2023-02-19T01:49:20.697Z,97640.67
2023-02-19T01:52:44.356Z,97635.16
2023-02-19T01:56:45.132Z,97636.59
2023-02-19T02:00:11.951Z,97635.39
2023-02-19T02:03:49.452Z,97628.77
2023-02-19T02:07:42.603Z,97616.23
2023-02-19T02:11:07.340Z,97610.51
2023-02-19T02:14:48.143Z,97601.17
2023-02-19T02:18:50.724Z,97610.00
2023-02-19T02:22:59.472Z,97604.05
2023-02-19T02:27:12.382Z,97597.15
2023-02-19T02:31:03.848Z,97595.66
2023-02-19T02:34:46.235Z,97596.85
2023-02-19T02:38:31.309Z,97592.33
2023-02-19T02:42:27.879Z,97587.14
2023-02-19T02:45:58.495Z,97586.42
2023-02-19T02:50:06.637Z,97589.92
2023-02-19T02:54:07.372Z,97592.27
2023-02-19T02:57:30.685Z,97586.63
2023-02-19T03:01:36.014Z,97582.46
2023-02-19T03:05:44.200Z,97577.90
2023-02-19T03:09:20.526Z,97575.79
2023-02-19T03:13:04.580Z,97572.80
2023-02-19T03:16:52.504Z,97570.94
2023-02-19T03:20:38.306Z,97570.06
2023-02-19T03:24:44.908Z,97565.28
2023-02-19T03:28:49.116Z,97560.42
2023-02-19T03:32:27.233Z,97557.21
2023-02-19T03:35:58.349Z,97558.25
2023-02-19T03:39:30.827Z,97558.48
2023-02-19T03:43:33.308Z,97553.08
2023-02-19T03:47:24.362Z,97558.90
2023-02-19T03:51:09.278Z,97565.09
2023-02-19T03:54:44.227Z,97566.67
2023-02-19T03:58:19.778Z,97556.63
2023-02-19T04:02:15.624Z,97555.08
2023-02-19T04:06:09.185Z,97555.52
2023-02-19T04:09:51.379Z,97548.71
2023-02-19T04:13:29.564Z,97538.48
2023-02-19T04:17:03.305Z,97535.45
2023-02-19T04:20:37.496Z,97535.27
2023-02-19T04:24:37.101Z,97533.48
2023-02-19T04:28:02.557Z,97519.05
2023-02-19T04:31:57.482Z,97521.86
2023-02-19T04:35:40.211Z,97527.14
2023-02-19T04:39:03.681Z,97528.95
2023-02-19T04:42:41.532Z,97529.31
2023-02-19T04:46:20.392Z,97526.98
2023-02-19T04:49:55.879Z,97518.61
2023-02-19T04:53:34.603Z,97513.96
2023-02-19T04:57:32.627Z,97508.63
2023-02-19T05:00:54.911Z,97501.72
2023-02-19T05:04:32.702Z,97491.96
2023-02-19T05:08:11.386Z,97489.38
2023-02-19T05:11:49.207Z,97484.38
2023-02-19T05:15:29.214Z,97479.28
2023-02-19T05:19:22.201Z,97475.50
2023-02-19T05:22:45.540Z,97465.14
2023-02-19T05:26:23.576Z,97466.64
2023-02-19T05:29:59.885Z,97464.75
2023-02-19T05:33:56.328Z,97468.96
2023-02-19T05:37:18.429Z,97475.79
2023-02-19T05:40:56.165Z,97469.00
2023-02-19T05:44:34.159Z,97471.81
2023-02-19T05:48:30.477Z,97473.34
2023-02-19T05:51:52.826Z,97467.43
2023-02-19T05:55:34.533Z,97462.60
2023-02-19T05:59:15.542Z,97465.08
2023-02-19T06:02:46.692Z,97462.55
2023-02-19T06:06:25.434Z,97463.41
2023-02-19T06:10:01.238Z,97465.06
2023-02-19T06:13:38.747Z,97468.17
2023-02-19T06:17:16.726Z,97468.48
2023-02-19T06:20:54.043Z,97471.52
2023-02-19T06:24:50.405Z,97472.21
2023-02-19T06:28:31.617Z,97471.77
2023-02-19T06:31:55.157Z,97473.70
2023-02-19T06:35:50.166Z,97479.76
2023-02-19T06:39:16.650Z,97477.91
2023-02-19T06:43:10.826Z,97479.23
2023-02-19T06:46:35.552Z,97480.83
2023-02-19T06:50:34.241Z,97474.50
2023-02-19T06:53:56.113Z,97475.02
2023-02-19T06:57:33.905Z,97474.85
2023-02-19T07:01:12.223Z,97468.70
2023-02-19T07:04:49.183Z,97477.40
2023-02-19T07:08:45.811Z,97477.89
2023-02-19T07:12:08.181Z,97480.84
2023-02-19T07:16:07.714Z,97478.77
2023-02-19T07:19:31.942Z,97480.59
2023-02-19T07:23:07.817Z,97476.80
2023-02-19T07:26:45.507Z,97477.90
2023-02-19T07:30:42.129Z,97479.89
2023-02-19T07:34:04.363Z,97476.98
2023-02-19T07:37:43.767Z,97479.08
2023-02-19T07:41:19.508Z,97478.00
2023-02-19T07:45:00.498Z,97478.05
2023-02-19T07:48:36.582Z,97477.36
2023-02-19T07:52:12.414Z,97475.01
2023-02-19T07:55:50.408Z,97477.69
2023-02-19T07:59:27.690Z,97475.55
2023-02-19T08:03:06.302Z,97470.44
2023-02-19T08:06:43.669Z,97467.64
2023-02-19T08:10:59.246Z,97472.17
2023-02-19T08:14:26.302Z,97480.88
2023-02-19T08:18:25.099Z,97485.05
2023-02-19T08:21:47.357Z,97482.05
2023-02-19T08:25:43.899Z,97479.41
2023-02-19T08:29:06.577Z,97487.33
2023-02-19T08:33:04.549Z,97497.31
2023-02-19T08:36:46.024Z,97509.08
2023-02-19T08:40:08.732Z,97513.98
2023-02-19T08:44:04.536Z,97510.73
2023-02-19T08:47:26.857Z,97511.50
2023-02-19T08:51:23.433Z,97512.83
2023-02-19T08:54:47.003Z,97519.68
2023-02-19T08:58:43.272Z,97523.88
2023-02-19T09:02:06.450Z,97527.09
2023-02-19T09:06:02.885Z,97530.73
2023-02-19T09:09:25.860Z,97537.30
2023-02-19T09:13:21.668Z,97532.77
2023-02-19T09:16:44.257Z,97536.36
2023-02-19T09:20:21.949Z,97539.75
2023-02-19T09:23:59.359Z,97545.65
2023-02-19T09:27:37.003Z,97547.39
2023-02-19T09:31:17.123Z,97556.44
2023-02-19T09:35:11.225Z,97574.21
2023-02-19T09:38:53.206Z,97582.55
2023-02-19T09:42:29.826Z,97581.44
2023-02-19T09:46:04.568Z,97593.52
2023-02-19T09:49:39.798Z,97600.65
2023-02-19T09:53:25.209Z,97602.55
2023-02-19T09:57:17.880Z,97604.02
2023-02-19T10:00:40.788Z,97608.09
2023-02-19T10:04:18.405Z,97613.21
2023-02-19T10:07:57.956Z,97614.76
2023-02-19T10:11:58.798Z,97616.09
2023-02-19T10:15:33.538Z,97616.40
2023-02-19T10:19:20.722Z,97611.53
2023-02-19T10:22:45.634Z,97615.45
2023-02-19T10:26:41.650Z,97619.65
2023-02-19T10:30:07.937Z,97620.09
2023-02-19T10:33:55.669Z,97619.27
2023-02-19T10:37:19.820Z,97628.92
2023-02-19T10:41:06.231Z,97633.93
2023-02-19T10:44:47.897Z,97636.95
2023-02-19T10:48:24.826Z,97645.84
2023-02-19T10:51:53.883Z,97652.23
2023-02-19T10:55:37.826Z,97654.66
2023-02-19T10:59:17.766Z,97652.41
2023-02-19T11:02:47.244Z,97655.17
2023-02-19T11:06:39.937Z,97659.55
2023-02-19T11:10:03.442Z,97662.13
2023-02-19T11:13:42.299Z,97663.34
2023-02-19T11:17:36.279Z,97664.81
2023-02-19T11:21:32.432Z,97672.75
2023-02-19T11:25:02.464Z,97663.86
2023-02-19T11:28:37.951Z,97667.11
2023-02-19T11:32:30.176Z,97673.10
2023-02-19T11:36:20.714Z,97678.74
2023-02-19T11:40:02.875Z,97686.92
2023-02-19T11:43:53.058Z,97692.09
2023-02-19T11:47:46.069Z,97697.89
2023-02-19T11:51:34.142Z,97702.35
2023-02-19T11:55:23.568Z,97703.58
2023-02-19T11:59:00.815Z,97707.68
2023-02-19T12:02:59.212Z,97716.02
2023-02-19T12:06:48.533Z,97712.42
2023-02-19T12:10:14.016Z,97716.33
2023-02-19T12:13:55.125Z,97716.68
2023-02-19T12:17:54.570Z,97715.27
2023-02-19T12:21:50.935Z,97716.04
2023-02-19T12:25:38.718Z,97722.59
2023-02-19T12:29:30.162Z,97728.59
2023-02-19T12:33:45.425Z,97732.11
2023-02-19T12:37:59.827Z,97735.02
2023-02-19T12:41:57.004Z,97739.52
2023-02-19T12:45:36.514Z,97747.97
2023-02-19T12:49:32.755Z,97752.10
2023-02-19T12:53:32.995Z,97754.60
2023-02-19T12:57:12.578Z,97753.54
2023-02-19T13:00:47.385Z,97758.98
2023-02-19T13:04:50.906Z,97762.71
2023-02-19T13:08:48.817Z,97769.72
2023-02-19T13:12:27.641Z,97772.08
2023-02-19T13:16:00.727Z,97776.92
2023-02-19T13:19:33.614Z,97778.65
2023-02-19T13:23:37.897Z,97783.98
2023-02-19T13:27:17.498Z,97785.02
2023-02-19T13:31:13.633Z,97791.98
2023-02-19T13:35:16.361Z,97790.88
2023-02-19T13:38:47.345Z,97795.91
2023-02-19T13:42:31.219Z,97802.81
2023-02-19T13:46:01.642Z,97807.34
2023-02-19T13:49:33.831Z,97816.20
2023-02-19T13:53:47.687Z,97818.98
2023-02-19T13:57:29.153Z,97823.36
2023-02-19T14:00:53.515Z,97830.66
2023-02-19T14:04:43.759Z,97832.95
2023-02-19T14:08:47.562Z,97834.69
2023-02-19T14:12:14.404Z,97840.58
2023-02-19T14:15:51.700Z,97850.19
2023-02-19T14:19:48.983Z,97862.17
2023-02-19T14:23:22.880Z,97874.90
2023-02-19T14:27:10.256Z,97883.77
2023-02-19T14:31:02.351Z,97890.58
2023-02-19T14:34:46.681Z,97901.50
2023-02-19T14:38:36.310Z,97905.36
2023-02-19T14:42:05.586Z,97906.41
2023-02-19T14:45:47.091Z,97915.99
2023-02-19T14:49:45.644Z,97916.17
2023-02-19T14:53:11.072Z,97925.27
2023-02-19T14:56:51.358Z,97929.06
2023-02-19T15:00:43.146Z,97929.27
2023-02-19T15:04:34.528Z,97928.90
2023-02-19T15:08:22.266Z,97935.09
2023-02-19T15:11:45.780Z,97942.08
2023-02-19T15:15:33.501Z,97942.46
2023-02-19T15:19:05.128Z,97946.27
2023-02-19T15:22:41.958Z,97947.48
2023-02-19T15:26:36.976Z,97953.17
2023-02-19T15:30:25.548Z,97957.64
2023-02-19T15:34:15.577Z,97953.98
2023-02-19T15:37:39.773Z,97955.16
2023-02-19T15:41:21.211Z,97962.07
2023-02-19T15:45:07.044Z,97973.81
2023-02-19T15:48:57.422Z,97986.94
2023-02-19T15:52:59.585Z,98000.46
2023-02-19T15:56:48.369Z,98008.74
2023-02-19T16:00:14.078Z,98019.91
2023-02-19T16:04:16.637Z,98028.73
2023-02-19T16:07:38.958Z,98031.44
2023-02-19T16:11:22.611Z,98033.98
2023-02-19T16:15:14.370Z,98038.36
2023-02-19T16:18:37.181Z,98047.61
2023-02-19T16:22:40.897Z,98058.64
2023-02-19T16:26:04.342Z,98059.50
2023-02-19T16:30:27.520Z,98063.49
2023-02-19T16:33:50.740Z,98072.22
2023-02-19T16:37:58.240Z,98076.35
2023-02-19T16:41:21.171Z,98092.14
2023-02-19T16:44:58.153Z,98106.92
2023-02-19T16:48:35.391Z,98116.27
2023-02-19T16:52:15.434Z,98123.76
2023-02-19T16:56:17.825Z,98131.40
2023-02-19T16:59:40.041Z,98131.02
2023-02-19T17:03:23.824Z,98137.64
2023-02-19T17:06:56.712Z,98140.38
2023-02-19T17:10:33.119Z,98138.46
2023-02-19T17:14:29.762Z,98150.54
2023-02-19T17:17:52.451Z,98159.85
2023-02-19T17:21:33.427Z,98162.08
2023-02-19T17:25:09.980Z,98165.56
2023-02-19T17:29:06.073Z,98174.16
2023-02-19T17:32:50.094Z,98179.00
2023-02-19T17:36:24.461Z,98185.00
2023-02-19T17:40:31.893Z,98187.85
2023-02-19T17:44:14.854Z,98196.86
2023-02-19T17:47:37.090Z,98210.34
2023-02-19T17:51:15.204Z,98213.63
2023-02-19T17:54:52.516Z,98219.36
2023-02-19T17:58:49.709Z,98228.05
2023-02-19T18:02:11.842Z,98232.10
2023-02-19T18:06:08.706Z,98232.70
2023-02-19T18:09:53.666Z,98238.23
2023-02-19T18:13:34.720Z,98247.30
2023-02-19T18:17:15.837Z,98258.59
2023-02-19T18:20:38.207Z,98260.61
2023-02-19T18:24:17.645Z,98263.59
2023-02-19T18:27:53.867Z,98262.70
2023-02-19T18:31:49.980Z,98267.54
2023-02-19T18:35:31.115Z,98264.66
2023-02-19T18:39:12.186Z,98266.77
2023-02-19T18:42:53.418Z,98269.08
2023-02-19T18:46:16.508Z,98274.07
2023-02-19T18:49:57.879Z,98272.45
2023-02-19T18:53:31.834Z,98270.67
2023-02-19T18:57:28.632Z,98271.77
2023-02-19T19:00:52.252Z,98281.33
2023-02-19T19:04:51.210Z,98285.94
2023-02-19T19:08:13.289Z,98296.68
2023-02-19T19:12:11.259Z,98304.98
2023-02-19T19:15:34.228Z,98305.44
2023-02-19T19:19:12.569Z,98310.80
2023-02-19T19:22:51.545Z,98313.30
2023-02-19T19:26:47.558Z,98317.00
2023-02-19T19:30:30.094Z,98312.95
2023-02-19T19:34:15.450Z,98313.08
2023-02-19T19:37:56.592Z,98321.59
2023-02-19T19:41:37.453Z,98328.56
2023-02-19T19:45:00.330Z,98332.38
2023-02-19T19:48:56.447Z,98341.84
2023-02-19T19:52:37.419Z,98342.67
2023-02-19T19:56:00.806Z,98344.68
2023-02-19T19:59:39.661Z,98344.00
2023-02-19T20:03:15.135Z,98348.45
2023-02-19T20:06:53.075Z,98342.87
2023-02-19T20:10:30.383Z,98338.09
2023-02-19T20:14:11.335Z,98343.00
2023-02-19T20:18:04.561Z,98349.37
2023-02-19T20:21:27.131Z,98354.91
2023-02-19T20:25:05.832Z,98352.11
2023-02-19T20:28:45.331Z,98357.28
2023-02-19T20:32:38.794Z,98359.45
2023-02-19T20:36:01.181Z,98363.84
2023-02-19T20:39:38.757Z,98371.34
2023-02-19T20:43:16.196Z,98376.81
2023-02-19T20:46:54.760Z,98386.08
2023-02-19T20:50:31.372Z,98387.33
2023-02-19T20:54:30.795Z,98398.95
2023-02-19T20:57:52.862Z,98400.70
2023-02-19T21:01:30.628Z,98407.52
2023-02-19T21:05:27.232Z,98417.77
2023-02-19T21:08:49.218Z,98418.24
2023-02-19T21:12:26.818Z,98423.27
2023-02-19T21:16:04.840Z,98425.98
2023-02-19T21:19:42.314Z,98432.28
2023-02-19T21:23:19.893Z,98435.77
2023-02-19T21:26:57.669Z,98442.84
2023-02-19T21:30:56.197Z,98449.04
2023-02-19T21:34:22.044Z,98448.56
2023-02-19T21:37:56.067Z,98452.14
2023-02-19T21:41:33.975Z,98451.33
2023-02-19T21:45:11.486Z,98448.45
2023-02-19T21:49:12.198Z,98450.69
2023-02-19T21:52:34.350Z,98455.10
2023-02-19T21:56:20.474Z,98461.19
2023-02-19T21:59:51.255Z,98466.76
2023-02-19T22:03:28.624Z,98472.98
2023-02-19T22:07:25.111Z,98472.64
2023-02-19T22:10:47.523Z,98469.38
2023-02-19T22:14:25.244Z,98475.83
2023-02-19T22:18:03.304Z,98480.20
2023-02-19T22:21:59.607Z,98479.86
2023-02-19T22:25:23.913Z,98479.16
2023-02-19T22:29:01.383Z,98479.85
2023-02-19T22:32:39.566Z,98485.36
2023-02-19T22:36:23.850Z,98490.65
2023-02-19T22:40:12.022Z,98493.55
2023-02-19T22:43:36.068Z,98490.48
2023-02-19T22:47:12.974Z,98494.03
2023-02-19T22:50:49.510Z,98493.95
2023-02-19T22:54:29.829Z,98500.23
2023-02-19T22:58:04.915Z,98500.21
2023-02-19T23:02:01.403Z,98505.52
2023-02-19T23:05:24.566Z,98506.60
2023-02-19T23:09:09.839Z,98514.70
2023-02-19T23:12:40.098Z,98523.95
2023-02-19T23:16:16.966Z,98526.23
2023-02-19T23:20:13.194Z,98526.97
2023-02-19T23:23:36.480Z,98536.81
2023-02-19T23:27:14.144Z,98532.88
2023-02-19T23:30:52.030Z,98535.17
2023-02-19T23:34:49.559Z,98534.42
2023-02-19T23:38:12.153Z,98536.93
2023-02-19T23:41:52.841Z,98534.01
2023-02-19T23:45:27.394Z,98532.30
2023-02-19T23:49:05.629Z,98535.56
2023-02-19T23:52:42.782Z,98525.90
2023-02-19T23:56:28.454Z,98525.77
2023-02-19T23:59:58.162Z,98529.36
